Time;durP1;ratioP1;P1;durP2;ratioP2;P2;SDS_P1;SDS_P2;PMS_P1;PMS_P2;Temp;Humidity;BMP_temperature;BMP_pressure;BME280_temperature;BME280_humidity;BME280_pressure;Samples;Min_cycle;Max_cycle;Signal;HPM_P1;HPM_P2
2022/07/14 00:00:56;;;;;;;4.05;3.75;;;;;;;21.86;51.07;100995.44;5084751;28;20026;-27
2022/07/14 00:03:21;;;;;;;4.47;4.18;;;;;;;21.80;50.81;101001.13;5072463;28;20024;-29
2022/07/14 00:05:47;;;;;;;4.55;4.25;;;;;;;21.76;51.22;101000.44;5065520;28;20478;-27
2022/07/14 00:08:12;;;;;;;4.93;4.53;;;;;;;21.71;51.08;101010.47;5086408;28;20462;-27
2022/07/14 00:10:38;;;;;;;4.63;4.22;;;;;;;21.64;50.91;101012.63;5081266;28;20043;-27
2022/07/14 00:13:03;;;;;;;5.10;4.70;;;;;;;21.59;51.25;101009.31;5072318;28;20463;-28
2022/07/14 00:15:29;;;;;;;5.22;3.83;;;;;;;21.54;51.18;101005.97;5069615;28;20064;-28
2022/07/14 00:17:56;;;;;;;5.03;4.53;;;;;;;21.46;51.15;101014.41;5088237;28;20122;-29
2022/07/14 00:20:22;;;;;;;4.65;4.03;;;;;;;21.39;51.43;101013.84;5092291;28;20031;-28
2022/07/14 00:22:47;;;;;;;4.70;4.30;;;;;;;21.34;51.68;101012.34;5073853;28;20024;-29
2022/07/14 00:25:12;;;;;;;4.93;4.53;;;;;;;21.28;51.64;101017.03;5074156;28;20039;-28
2022/07/14 00:27:38;;;;;;;4.70;4.28;;;;;;;21.22;51.61;101011.13;5092812;28;20031;-28
2022/07/14 00:30:05;;;;;;;4.45;4.15;;;;;;;21.18;51.78;101006.84;5087784;28;20364;-28
2022/07/14 00:32:30;;;;;;;4.60;4.30;;;;;;;21.11;51.72;101008.97;5091275;28;20076;-28
2022/07/14 00:34:58;;;;;;;4.65;4.25;;;;;;;21.04;52.03;101008.38;5056136;28;20122;-28
2022/07/14 00:37:24;;;;;;;5.60;5.03;;;;;;;20.99;52.29;101015.78;5091087;28;20024;-30
2022/07/14 00:39:55;;;;;;;4.63;4.22;;;;;;;20.96;52.29;101010.56;5090421;28;20379;-28
2022/07/14 00:42:26;;;;;;;4.50;4.20;;;;;;;20.88;52.54;101013.59;5066240;28;20028;-28
2022/07/14 00:44:52;;;;;;;4.95;4.43;;;;;;;20.83;52.40;101019.16;5071644;28;20495;-28
2022/07/14 00:47:17;;;;;;;4.38;4.03;;;;;;;20.76;52.20;101021.28;5071768;28;20025;-28
2022/07/14 00:49:42;;;;;;;4.63;4.32;;;;;;;20.74;52.62;101025.81;5086639;28;20035;-28
2022/07/14 00:52:08;;;;;;;4.85;4.45;;;;;;;20.71;52.81;101022.41;5076567;28;20029;-28
2022/07/14 00:54:33;;;;;;;4.70;4.40;;;;;;;20.64;52.86;101025.38;5072533;28;20383;-28
2022/07/14 00:56:58;;;;;;;4.43;4.03;;;;;;;20.58;52.46;101022.97;5091590;28;20033;-28
2022/07/14 00:59:23;;;;;;;4.70;4.38;;;;;;;20.53;52.99;101019.63;5064888;28;20046;-29
2022/07/14 01:01:49;;;;;;;4.93;4.53;;;;;;;20.50;53.27;101030.50;5099417;28;20034;-28
2022/07/14 01:04:14;;;;;;;4.90;4.43;;;;;;;20.48;53.27;101030.56;5086571;28;20119;-28
2022/07/14 01:06:39;;;;;;;5.30;4.90;;;;;;;20.42;52.86;101035.31;5083194;28;20098;-28
2022/07/14 01:09:05;;;;;;;4.85;4.43;;;;;;;20.38;53.02;101032.78;5084219;28;20403;-28
2022/07/14 01:11:30;;;;;;;4.90;4.50;;;;;;;20.35;53.16;101029.38;5091486;28;20028;-27
2022/07/14 01:13:56;;;;;;;4.40;4.10;;;;;;;20.31;53.20;101035.81;5079624;28;20094;-27
2022/07/14 01:16:21;;;;;;;4.82;4.38;;;;;;;20.26;53.18;101027.97;5073304;28;20035;-27
2022/07/14 01:18:46;;;;;;;5.10;4.70;;;;;;;20.27;53.32;101044.94;5087131;28;20063;-27
2022/07/14 01:21:12;;;;;;;4.63;4.20;;;;;;;20.22;53.11;101032.63;5075793;28;20524;-28
2022/07/14 01:23:37;;;;;;;4.30;4.00;;;;;;;20.18;53.57;101036.38;5072632;28;20486;-28
2022/07/14 01:26:02;;;;;;;4.43;4.03;;;;;;;20.15;53.47;101043.66;5094208;28;20384;-29
2022/07/14 01:28:28;;;;;;;4.00;3.58;;;;;;;20.07;53.24;101039.50;5075203;28;20059;-27
2022/07/14 01:30:53;;;;;;;5.53;4.15;;;;;;;20.05;53.43;101041.38;5072592;28;20463;-29
2022/07/14 01:33:19;;;;;;;4.50;4.10;;;;;;;20.02;53.55;101038.84;5083046;28;20067;-27
2022/07/14 01:35:44;;;;;;;4.85;4.45;;;;;;;20.00;53.68;101043.38;5071125;28;20052;-28
2022/07/14 01:38:09;;;;;;;4.63;4.22;;;;;;;19.94;53.29;101038.28;5080362;28;20075;-28
2022/07/14 01:40:35;;;;;;;4.88;4.50;;;;;;;19.92;53.65;101040.13;5073620;28;20474;-28
2022/07/14 01:43:00;;;;;;;4.88;4.47;;;;;;;19.87;53.58;101040.31;5103542;28;20028;-28
2022/07/14 01:45:26;;;;;;;4.60;4.20;;;;;;;19.85;53.98;101040.38;5097416;28;20032;-28
2022/07/14 01:47:51;;;;;;;4.65;4.35;;;;;;;19.80;53.74;101036.16;5091020;28;20035;-28
2022/07/14 01:50:16;;;;;;;4.60;4.30;;;;;;;19.80;54.05;101036.16;5071606;28;20043;-28
2022/07/14 01:52:42;;;;;;;4.53;4.13;;;;;;;19.74;53.98;101030.13;5090304;28;20031;-27
2022/07/14 01:55:08;;;;;;;6.78;4.55;;;;;;;19.71;54.14;101037.44;5073546;28;20032;-27
2022/07/14 01:57:33;;;;;;;4.35;3.95;;;;;;;19.68;54.10;101042.91;5091241;28;20121;-27
2022/07/14 01:59:59;;;;;;;4.20;3.90;;;;;;;19.68;54.10;101042.91;5072799;28;20040;-27
2022/07/14 02:02:24;;;;;;;4.35;3.72;;;;;;;19.67;53.98;101046.53;5089387;28;20030;-28
2022/07/14 02:04:49;;;;;;;5.03;4.55;;;;;;;19.62;54.24;101038.69;5070110;28;20427;-28
2022/07/14 02:07:14;;;;;;;5.93;4.15;;;;;;;19.59;54.34;101034.34;5088312;28;20505;-28
2022/07/14 02:12:23;;;;;;;5.28;4.05;;;;;;;19.54;54.42;101036.31;5086432;28;20230;-28
2022/07/14 02:14:49;;;;;;;3.90;3.60;;;;;;;19.48;54.42;101034.75;5088314;28;20028;-28
2022/07/14 02:17:14;;;;;;;4.63;4.22;;;;;;;19.47;54.32;101042.84;5062255;28;20020;-29
2022/07/14 02:19:39;;;;;;;3.92;3.63;;;;;;;19.44;54.61;101034.97;5065121;28;20069;-27
2022/07/14 02:22:05;;;;;;;4.05;3.70;;;;;;;19.41;54.35;101032.41;5094632;28;20372;-27
2022/07/14 02:24:30;;;;;;;4.03;3.72;;;;;;;19.36;54.39;101038.81;5092961;28;20068;-28
2022/07/14 02:26:55;;;;;;;4.03;3.72;;;;;;;19.36;54.34;101037.94;5089115;28;20476;-28
2022/07/14 02:29:21;;;;;;;4.55;4.15;;;;;;;19.32;54.19;101045.22;5072870;28;20040;-28
2022/07/14 02:31:47;;;;;;;3.85;3.55;;;;;;;19.31;54.78;101050.63;5070461;28;20027;-27
2022/07/14 02:34:12;;;;;;;4.82;3.92;;;;;;;19.25;54.64;101041.06;5075648;28;20020;-27
2022/07/14 02:36:39;;;;;;;4.15;3.75;;;;;;;19.22;54.54;101051.88;5085711;28;20069;-27
2022/07/14 02:39:04;;;;;;;4.30;3.90;;;;;;;19.21;54.83;101052.81;5070925;28;20101;-27
2022/07/14 02:41:30;;;;;;;4.45;3.50;;;;;;;19.15;54.51;101050.38;5092313;28;20048;-27
2022/07/14 02:43:55;;;;;;;4.35;4.00;;;;;;;19.14;54.68;101044.13;5062859;28;20038;-27
2022/07/14 02:46:20;;;;;;;4.32;3.75;;;;;;;19.14;54.91;101045.97;5094033;28;20483;-27
2022/07/14 02:48:46;;;;;;;3.88;3.53;;;;;;;19.12;54.71;101053.16;5072761;28;20024;-27
2022/07/14 02:51:12;;;;;;;3.78;3.47;;;;;;;19.10;54.54;101059.44;5075845;28;20052;-27
2022/07/14 02:53:37;;;;;;;4.03;3.70;;;;;;;19.05;54.58;101066.75;5092960;28;20118;-27
2022/07/14 02:56:04;;;;;;;7.25;3.97;;;;;;;19.06;55.19;101072.94;5079926;28;20016;-27
2022/07/14 02:58:29;;;;;;;4.07;3.72;;;;;;;19.03;54.53;101076.59;5074918;28;20056;-27
2022/07/14 03:00:55;;;;;;;4.00;3.70;;;;;;;19.00;55.27;101074.03;5075479;28;20052;-27
2022/07/14 03:03:21;;;;;;;3.97;3.67;;;;;;;18.96;54.73;101069.75;5075420;28;20430;-27
2022/07/14 03:05:47;;;;;;;4.47;4.00;;;;;;;18.98;54.76;101070.56;5094053;28;20410;-27
2022/07/14 03:08:13;;;;;;;4.10;3.80;;;;;;;18.94;55.02;101080.50;5093438;28;20028;-27
2022/07/14 03:10:38;;;;;;;3.70;3.40;;;;;;;18.90;55.26;101081.53;5075390;28;20029;-27
2022/07/14 03:13:04;;;;;;;4.38;3.83;;;;;;;18.92;55.12;101081.50;5093615;28;20059;-27
2022/07/14 03:15:29;;;;;;;3.70;3.38;;;;;;;18.86;55.09;101079.91;5094036;28;20468;-27
2022/07/14 03:17:55;;;;;;;3.92;3.58;;;;;;;18.84;55.17;101084.47;5094015;28;20034;-27
2022/07/14 03:20:20;;;;;;;3.92;3.50;;;;;;;18.79;55.12;101087.31;5092654;28;20210;-27
2022/07/14 03:22:46;;;;;;;4.00;3.65;;;;;;;18.75;55.14;101095.47;5076027;28;20027;-27
2022/07/14 03:25:11;;;;;;;3.53;3.22;;;;;;;18.73;55.11;101082.19;5092635;28;20031;-27
2022/07/14 03:27:38;;;;;;;4.35;3.95;;;;;;;18.70;55.18;101088.50;5085487;28;20104;-27
2022/07/14 03:30:05;;;;;;;3.63;3.40;;;;;;;18.68;55.42;101089.50;5075825;28;20028;-28
2022/07/14 03:32:30;;;;;;;4.38;3.30;;;;;;;18.63;55.59;101092.31;5085719;28;20403;-30
2022/07/14 03:34:57;;;;;;;4.25;3.88;;;;;;;18.64;54.97;101093.22;5094454;28;20475;-27
2022/07/14 03:37:23;;;;;;;3.83;3.50;;;;;;;18.64;55.14;101101.22;5093993;28;20469;-27
2022/07/14 03:39:48;;;;;;;4.00;3.67;;;;;;;18.59;55.32;101102.28;5082649;28;20530;-27
2022/07/14 03:42:13;;;;;;;4.60;4.30;;;;;;;18.59;55.64;101098.72;5058359;28;20514;-27
2022/07/14 03:44:39;;;;;;;3.92;3.63;;;;;;;18.55;55.75;101097.97;5079658;28;20466;-27
2022/07/14 03:47:04;;;;;;;4.50;4.10;;;;;;;18.56;55.63;101104.16;5074904;28;20020;-29
2022/07/14 03:49:29;;;;;;;4.07;3.78;;;;;;;18.55;55.99;101105.97;5073030;28;20020;-27
2022/07/14 03:51:55;;;;;;;5.35;3.83;;;;;;;18.56;56.51;101110.38;5093363;28;20115;-27
2022/07/14 03:54:20;;;;;;;4.40;4.00;;;;;;;18.54;55.69;101109.56;5092823;28;20063;-27
2022/07/14 03:56:45;;;;;;;4.82;3.72;;;;;;;18.54;55.64;101103.38;5088855;28;20040;-27
2022/07/14 03:59:11;;;;;;;4.18;3.63;;;;;;;18.56;55.71;101107.72;5066625;28;20036;-27
2022/07/14 04:01:39;;;;;;;5.15;3.88;;;;;;;18.55;55.43;101105.97;5091670;28;20111;-27
2022/07/14 04:04:04;;;;;;;5.20;3.55;;;;;;;18.51;55.43;101104.31;5092530;28;20024;-27
2022/07/14 04:06:30;;;;;;;4.53;4.07;;;;;;;18.56;56.26;101104.16;5081323;28;20032;-27
2022/07/14 04:08:55;;;;;;;4.25;3.90;;;;;;;18.52;55.66;101099.84;5104623;28;20062;-27
2022/07/14 04:11:20;;;;;;;3.92;3.63;;;;;;;18.55;55.87;101100.63;5071716;28;20361;-27
2022/07/14 04:13:46;;;;;;;3.70;3.30;;;;;;;18.51;55.63;101107.00;5073384;28;20037;-27
2022/07/14 04:16:11;;;;;;;4.03;3.50;;;;;;;18.55;56.16;101100.63;5070563;28;20118;-27
2022/07/14 04:18:36;;;;;;;5.03;4.45;;;;;;;18.50;55.22;101105.25;5085009;28;20055;-27
2022/07/14 04:21:02;;;;;;;5.70;4.28;;;;;;;18.55;57.02;101115.78;5074366;28;20024;-27
2022/07/14 04:23:28;;;;;;;5.18;3.90;;;;;;;18.54;55.86;101122.91;5105150;28;20035;-27
2022/07/14 04:25:53;;;;;;;3.83;3.53;;;;;;;18.54;55.67;101130.91;5094888;28;20027;-27
2022/07/14 04:28:19;;;;;;;4.82;3.88;;;;;;;18.56;55.79;101123.75;5112947;28;20518;-27
2022/07/14 04:30:44;;;;;;;5.15;4.07;;;;;;;18.55;55.84;101130.03;5112598;28;20023;-27
2022/07/14 04:33:10;;;;;;;4.28;3.80;;;;;;;18.55;55.51;101131.81;5073276;28;20031;-27
2022/07/14 04:35:36;;;;;;;3.65;3.35;;;;;;;18.56;56.17;101139.75;5074114;28;20114;-27
2022/07/14 04:38:01;;;;;;;3.65;3.45;;;;;;;18.55;55.96;101131.81;5095357;28;20027;-27
2022/07/14 04:40:27;;;;;;;4.10;3.70;;;;;;;18.52;56.17;101143.47;5094686;28;20024;-28
2022/07/14 04:42:52;;;;;;;3.55;3.25;;;;;;;18.52;56.19;101148.81;5072028;28;20033;-27
2022/07/14 04:45:18;;;;;;;5.15;3.78;;;;;;;18.55;56.04;101147.81;5037505;28;20074;-27
2022/07/14 04:47:43;;;;;;;3.85;3.53;;;;;;;18.51;55.96;101152.38;5079122;28;20028;-28
2022/07/14 04:52:52;;;;;;;6.05;3.35;;;;;;;18.51;55.93;101154.22;5088977;28;20058;-27
2022/07/14 04:55:18;;;;;;;3.40;3.10;;;;;;;18.49;56.08;101148.91;5091501;28;20463;-27
2022/07/14 04:57:44;;;;;;;4.35;3.28;;;;;;;18.47;55.84;101156.09;5082591;28;20024;-27
2022/07/14 05:00:10;;;;;;;4.75;3.28;;;;;;;18.46;56.15;101144.56;5076341;28;20114;-27
2022/07/14 05:02:36;;;;;;;5.60;3.63;;;;;;;18.46;56.23;101149.03;5088699;28;20032;-28
2022/07/14 05:05:02;;;;;;;5.10;3.03;;;;;;;18.45;55.89;101152.63;5073461;28;20395;-27
2022/07/14 05:07:28;;;;;;;5.00;3.15;;;;;;;18.47;55.89;101153.44;5090858;28;20032;-27
2022/07/14 05:09:53;;;;;;;4.80;2.88;;;;;;;18.48;56.02;101156.97;5090318;28;20028;-28
2022/07/14 05:12:18;;;;;;;4.70;2.83;;;;;;;18.45;55.87;101158.81;5088327;28;20028;-27
2022/07/14 05:14:44;;;;;;;3.83;2.92;;;;;;;18.45;55.52;101168.66;5091096;28;20024;-27
2022/07/14 05:17:10;;;;;;;6.25;2.70;;;;;;;18.45;55.73;101168.66;5049678;28;20028;-27
2022/07/14 05:19:35;;;;;;;10.10;2.80;;;;;;;18.46;55.78;101162.38;5052531;28;20024;-28
2022/07/14 05:22:01;;;;;;;5.35;2.80;;;;;;;18.48;55.91;101173.88;5081516;28;20031;-27
2022/07/14 05:24:26;;;;;;;6.00;2.65;;;;;;;18.49;55.85;101170.28;5089143;28;20035;-27
2022/07/14 05:26:51;;;;;;;4.93;2.65;;;;;;;18.49;55.97;101164.94;5070712;28;20076;-27
2022/07/14 05:29:17;;;;;;;3.42;2.65;;;;;;;18.50;55.99;101169.34;5087585;28;20547;-27
2022/07/14 05:31:42;;;;;;;3.97;2.65;;;;;;;18.52;55.92;101172.84;5086111;28;20039;-28
2022/07/14 05:34:08;;;;;;;3.75;2.95;;;;;;;18.53;55.77;101169.25;5084665;28;20031;-27
2022/07/14 05:36:34;;;;;;;4.32;3.05;;;;;;;18.58;55.63;101180.63;5088565;28;20039;-27
2022/07/14 05:39:00;;;;;;;4.60;3.22;;;;;;;18.59;55.87;101182.41;5086711;28;20032;-27
2022/07/14 05:41:25;;;;;;;4.47;2.95;;;;;;;18.63;55.49;101176.94;5071006;28;20023;-30
2022/07/14 05:43:51;;;;;;;6.28;2.88;;;;;;;18.65;55.59;101161.72;5079833;28;20468;-27
2022/07/14 05:46:16;;;;;;;3.90;2.78;;;;;;;18.68;55.68;101170.50;5072179;28;20499;-27
2022/07/14 05:48:41;;;;;;;3.78;2.45;;;;;;;18.71;55.43;101164.19;5083587;28;20032;-27
2022/07/14 05:51:15;;;;;;;4.00;2.30;;;;;;;18.74;55.79;101168.56;5091692;28;20384;-27
2022/07/14 05:53:42;;;;;;;7.28;2.92;;;;;;;18.75;55.79;101165.84;5091531;28;20051;-27
2022/07/14 05:56:10;;;;;;;4.85;3.20;;;;;;;18.77;56.10;101165.78;5069981;28;20629;-30
2022/07/14 05:58:35;;;;;;;3.72;3.30;;;;;;;18.80;55.90;101169.19;5092591;28;20028;-30
2022/07/14 06:01:02;;;;;;;5.43;2.83;;;;;;;18.81;56.00;101162.91;5067808;28;20391;-30
2022/07/14 06:03:27;;;;;;;5.53;3.05;;;;;;;18.81;55.85;101152.22;5091922;28;20038;-30
2022/07/14 06:05:53;;;;;;;4.10;2.50;;;;;;;18.83;55.98;101153.06;5093024;28;20032;-28
2022/07/14 06:08:18;;;;;;;3.55;2.42;;;;;;;18.83;56.05;101146.84;5056345;28;20123;-31
2022/07/14 06:10:44;;;;;;;6.75;3.10;;;;;;;18.84;55.67;101148.59;5090079;28;20399;-31
2022/07/14 06:13:09;;;;;;;8.30;3.17;;;;;;;18.86;55.80;101146.72;5084136;28;20107;-31
2022/07/14 06:15:35;;;;;;;6.28;3.15;;;;;;;18.87;55.64;101148.47;5091298;28;20020;-30
2022/07/14 06:18:00;;;;;;;7.82;3.35;;;;;;;18.88;55.79;101157.34;5090658;28;20051;-31
2022/07/14 06:20:26;;;;;;;7.18;3.38;;;;;;;18.89;55.68;101161.78;5075786;28;20016;-30
2022/07/14 06:22:51;;;;;;;6.43;2.97;;;;;;;18.91;55.71;101165.28;5090701;28;20024;-31
2022/07/14 06:25:16;;;;;;;5.40;3.08;;;;;;;18.90;55.96;101168.88;5088472;28;20065;-30
2022/07/14 06:27:42;;;;;;;10.57;3.13;;;;;;;18.92;55.66;101167.00;5092985;28;20110;-30
2022/07/14 06:30:08;;;;;;;6.18;3.00;;;;;;;18.92;55.66;101169.69;5070854;28;20471;-30
2022/07/14 06:32:34;;;;;;;5.10;2.88;;;;;;;18.92;55.73;101162.56;5069906;28;20028;-29
2022/07/14 06:34:59;;;;;;;5.35;3.17;;;;;;;18.94;55.50;101159.81;5076518;28;20036;-30
2022/07/14 06:37:25;;;;;;;4.70;2.65;;;;;;;18.94;55.77;101151.81;5074425;28;20055;-31
2022/07/14 06:39:51;;;;;;;6.45;3.28;;;;;;;18.95;55.60;101151.75;5080565;28;20103;-29
2022/07/14 06:42:16;;;;;;;4.47;2.70;;;;;;;18.98;55.57;101150.75;5094058;28;20020;-30
2022/07/14 06:44:42;;;;;;;8.15;3.50;;;;;;;18.98;55.62;101146.25;5093601;28;20060;-31
2022/07/14 06:47:07;;;;;;;6.43;3.03;;;;;;;19.00;55.73;101148.88;5073440;28;20031;-30
2022/07/14 06:49:32;;;;;;;11.20;3.03;;;;;;;19.03;55.77;101142.53;5083015;28;20185;-31
2022/07/14 06:51:58;;;;;;;5.32;2.67;;;;;;;19.05;55.58;101143.38;5075410;28;20020;-31
2022/07/14 06:54:23;;;;;;;5.43;3.47;;;;;;;19.07;55.41;101134.41;5087414;28;20035;-30
2022/07/14 06:56:48;;;;;;;6.88;3.10;;;;;;;19.09;55.68;101137.00;5052837;28;20038;-30
2022/07/14 06:59:14;;;;;;;8.38;3.20;;;;;;;19.12;55.68;101138.69;5073718;28;20035;-30
2022/07/14 07:01:39;;;;;;;5.18;2.80;;;;;;;19.15;55.80;101135.91;5075555;28;20025;-30
2022/07/14 07:04:06;;;;;;;5.57;3.20;;;;;;;19.18;55.59;101130.44;5096218;28;20023;-31
2022/07/14 07:06:44;;;;;;;8.43;3.47;;;;;;;19.20;55.76;101120.56;5094383;28;20229;-30
2022/07/14 07:09:13;;;;;;;6.00;2.90;;;;;;;19.22;55.71;101121.38;5087772;28;20514;-30
2022/07/14 07:11:39;;;;;;;5.50;2.58;;;;;;;19.26;55.16;101123.00;5074489;28;20024;-31
2022/07/14 07:14:04;;;;;;;5.93;2.70;;;;;;;19.28;55.70;101112.25;5075663;28;20494;-31
2022/07/14 07:16:30;;;;;;;8.40;3.28;;;;;;;19.31;55.73;101121.00;5084212;28;20036;-30
2022/07/14 07:18:55;;;;;;;6.78;3.00;;;;;;;19.33;55.58;101104.91;5075769;28;20033;-30
2022/07/14 07:21:21;;;;;;;5.10;2.53;;;;;;;19.37;55.40;101109.22;5093260;28;20016;-30
2022/07/14 07:23:47;;;;;;;6.88;2.97;;;;;;;19.40;55.45;101108.25;5088984;28;20024;-30
2022/07/14 07:26:13;;;;;;;7.03;2.90;;;;;;;19.42;55.60;101101.00;5089631;28;20028;-31
2022/07/14 07:28:39;;;;;;;5.30;2.65;;;;;;;19.45;55.20;101111.59;5092774;28;20036;-31
2022/07/14 07:31:04;;;;;;;8.40;3.13;;;;;;;19.48;55.26;101106.97;5087880;28;20028;-30
2022/07/14 07:33:30;;;;;;;5.28;3.08;;;;;;;19.52;55.77;101102.41;5070576;28;20526;-31
2022/07/14 07:35:55;;;;;;;7.40;3.15;;;;;;;19.55;56.20;101093.38;5072332;28;20028;-29
2022/07/14 07:38:21;;;;;;;5.05;3.05;;;;;;;19.58;55.04;101098.59;5071599;28;20106;-30
2022/07/14 07:40:48;;;;;;;5.85;2.83;;;;;;;19.62;55.12;101100.22;5086452;28;20028;-30
2022/07/14 07:43:14;;;;;;;7.45;3.10;;;;;;;19.67;55.21;101100.03;5089066;28;20517;-30
2022/07/14 07:45:39;;;;;;;6.82;2.42;;;;;;;19.72;55.10;101111.41;5086988;28;20032;-28
2022/07/14 07:48:05;;;;;;;6.35;2.70;;;;;;;19.76;55.34;101094.28;5088651;28;20032;-28
2022/07/14 07:50:31;;;;;;;5.70;3.00;;;;;;;19.81;54.87;101092.28;5085817;28;20032;-28
2022/07/14 07:52:56;;;;;;;6.88;2.88;;;;;;;19.86;54.97;101078.72;5082507;28;20119;-28
2022/07/14 07:55:23;;;;;;;5.57;2.65;;;;;;;19.92;54.81;101056.19;5083518;28;20024;-28
2022/07/14 07:57:48;;;;;;;5.55;2.75;;;;;;;20.00;54.79;101070.13;5079200;28;20050;-28
2022/07/14 08:00:14;;;;;;;3.40;2.47;;;;;;;20.04;54.55;101061.03;5087943;28;20027;-28
2022/07/14 08:02:48;;;;;;;6.38;2.40;;;;;;;20.15;54.25;101068.63;5082479;28;20115;-28
2022/07/14 08:05:14;;;;;;;5.90;2.40;;;;;;;20.21;54.13;101064.81;5083376;28;20047;-29
2022/07/14 08:07:40;;;;;;;6.25;2.20;;;;;;;20.29;53.91;101065.34;5086755;28;20720;-28
2022/07/14 08:10:06;;;;;;;5.38;2.20;;;;;;;20.36;53.67;101050.75;5064795;28;20028;-28
2022/07/14 08:12:31;;;;;;;4.18;2.50;;;;;;;20.44;53.71;101054.91;5058440;28;20047;-28
2022/07/14 08:14:57;;;;;;;13.50;3.60;;;;;;;20.51;54.02;101073.28;5090369;28;20024;-31
2022/07/14 08:17:22;;;;;;;12.48;3.33;;;;;;;20.64;53.72;101087.00;5072098;28;20030;-29
2022/07/14 08:19:48;;;;;;;12.60;3.08;;;;;;;20.75;53.28;101099.06;5072888;28;20055;-29
2022/07/14 08:22:15;;;;;;;6.05;2.70;;;;;;;20.84;53.06;101090.59;5086815;28;20450;-30
2022/07/14 08:24:40;;;;;;;4.68;2.55;;;;;;;20.93;52.83;101096.50;5086949;28;20430;-29
2022/07/14 08:27:06;;;;;;;7.25;2.47;;;;;;;20.99;52.70;101090.84;5055606;28;20024;-30
2022/07/14 08:29:31;;;;;;;5.53;2.78;;;;;;;21.05;52.43;101085.22;5085332;28;20107;-29
2022/07/14 08:31:56;;;;;;;8.88;2.97;;;;;;;21.09;52.43;101085.94;5085659;28;20032;-29
2022/07/14 08:34:22;;;;;;;8.65;3.17;;;;;;;21.13;52.45;101072.31;5088136;28;20031;-29
2022/07/14 08:36:48;;;;;;;2.28;1.77;;;;;;;21.22;52.43;101048.66;5086625;28;20107;-28
2022/07/14 08:39:15;;;;;;;7.65;2.65;;;;;;;21.26;52.24;101045.78;5084621;28;20070;-29
2022/07/14 08:41:41;;;;;;;8.27;2.53;;;;;;;21.35;52.33;101044.47;5086789;28;20061;-29
2022/07/14 08:44:07;;;;;;;8.57;3.15;;;;;;;21.47;52.11;101039.44;5088509;28;20512;-29
2022/07/14 08:46:33;;;;;;;4.43;2.22;;;;;;;21.62;52.18;101052.09;5082621;28;20205;-28
2022/07/14 08:48:59;;;;;;;6.00;2.17;;;;;;;21.66;51.88;101053.69;5082707;28;20020;-29
2022/07/14 08:51:25;;;;;;;4.15;2.47;;;;;;;21.81;51.89;101053.88;5087667;28;20059;-29
2022/07/14 08:53:51;;;;;;;5.63;2.55;;;;;;;21.92;51.61;101056.91;5082135;28;20038;-29
2022/07/14 08:56:16;;;;;;;6.78;2.70;;;;;;;22.01;51.53;101054.69;5094966;28;20023;-28
2022/07/14 08:58:43;;;;;;;7.68;2.17;;;;;;;;;;5112145;28;20111;-28
2022/07/14 09:01:08;;;;;;;6.50;2.58;;;;;;;22.25;51.19;101043.59;5113083;28;20092;-28
2022/07/14 09:03:35;;;;;;;6.03;2.35;;;;;;;22.37;51.06;101036.72;5112487;28;20126;-28
2022/07/14 09:06:00;;;;;;;2.88;1.98;;;;;;;22.50;50.63;101044.97;5082126;28;20103;-28
2022/07/14 09:08:25;;;;;;;5.88;2.40;;;;;;;22.59;50.47;101040.94;5100712;28;20028;-28
2022/07/14 09:10:51;;;;;;;3.67;2.00;;;;;;;22.67;50.19;101044.97;5094326;28;20024;-28
2022/07/14 09:13:21;;;;;;;3.90;2.00;;;;;;;22.79;50.36;101039.88;5112559;28;20026;-29
2022/07/14 09:15:47;;;;;;;4.25;2.08;;;;;;;22.92;50.18;101050.81;5112627;28;20023;-29
2022/07/14 09:18:24;;;;;;;3.60;1.98;;;;;;;23.01;50.04;101044.06;5112512;28;20093;-28
2022/07/14 09:20:52;;;;;;;4.18;2.17;;;;;;;23.10;50.30;101046.22;5112309;28;20020;-28
2022/07/14 09:23:32;;;;;;;4.05;1.95;;;;;;;23.20;49.91;101036.69;5057779;28;20039;-28
2022/07/14 09:26:54;;;;;;;5.82;2.22;;;;;;;23.30;49.85;101028.94;5070922;28;20024;-28
2022/07/14 09:29:23;;;;;;;4.20;2.15;;;;;;;23.34;49.82;101032.31;4989484;28;20089;-28
2022/07/14 09:31:49;;;;;;;5.15;2.20;;;;;;;23.39;49.50;101026.72;5068043;28;20040;-27
2022/07/14 09:34:33;;;;;;;4.40;1.95;;;;;;;23.44;48.79;101014.72;5070272;28;20031;-27
2022/07/14 09:37:10;;;;;;;2.15;1.20;;;;;;;23.51;48.91;101014.38;5069920;28;20106;-28
2022/07/14 09:39:36;;;;;;;3.42;1.65;;;;;;;23.59;49.21;101017.47;5067550;28;20509;-29
2022/07/14 09:42:01;;;;;;;2.92;1.60;;;;;;;23.70;49.13;101012.31;5091752;28;20028;-28
2022/07/14 09:44:26;;;;;;;3.08;1.50;;;;;;;23.80;49.09;101004.56;5119723;22;20039;-27
2022/07/14 09:46:57;;;;;;;4.50;1.77;;;;;;;23.92;48.60;101005.66;5093626;28;20281;-27
2022/07/14 09:49:24;;;;;;;3.85;1.83;;;;;;;24.03;48.50;101007.69;5093955;28;20031;-27
2022/07/14 09:51:52;;;;;;;5.35;2.10;;;;;;;24.15;49.01;101002.53;5132349;28;20150;-27
2022/07/14 09:54:36;;;;;;;4.13;1.77;;;;;;;24.25;48.06;100987.53;5132220;28;20102;-27
2022/07/14 09:57:03;;;;;;;2.85;1.63;;;;;;;24.39;48.19;100983.09;5131088;28;20031;-27
2022/07/14 09:59:28;;;;;;;4.28;1.70;;;;;;;24.57;48.07;100986.44;5130850;28;20134;-27
2022/07/14 10:01:53;;;;;;;2.97;1.63;;;;;;;24.62;47.10;100991.56;5132345;28;20446;-27
2022/07/14 10:04:20;;;;;;;6.97;2.38;;;;;;;24.72;47.28;100977.41;5120156;28;20031;-28
2022/07/14 10:06:46;;;;;;;2.47;1.65;;;;;;;24.80;47.09;100955.31;5090209;28;20024;-27
2022/07/14 10:09:11;;;;;;;3.20;1.88;;;;;;;24.81;46.91;100953.50;5098140;28;20032;-27
2022/07/14 10:11:38;;;;;;;3.30;2.10;;;;;;;24.84;47.08;100961.41;5111618;28;20026;-27
2022/07/14 10:14:04;;;;;;;4.65;1.80;;;;;;;24.91;47.44;100953.78;5111155;28;20478;-27
2022/07/14 10:16:34;;;;;;;3.40;1.90;;;;;;;24.94;46.95;100959.84;5110162;28;20038;-27
2022/07/14 10:19:00;;;;;;;4.15;1.75;;;;;;;25.01;46.94;100956.75;5110710;28;20051;-27
2022/07/14 10:21:26;;;;;;;1.67;1.58;;;;;;;25.06;46.99;100951.91;5120591;28;20027;-28
2022/07/14 10:23:52;;;;;;;2.85;1.70;;;;;;;25.10;46.98;100954.31;5131125;28;20029;-27
2022/07/14 10:26:18;;;;;;;3.25;1.80;;;;;;;25.14;46.74;100954.94;5111029;27;20381;-28
2022/07/14 10:28:44;;;;;;;4.57;1.90;;;;;;;25.17;46.72;100945.81;5111593;28;20455;-27
2022/07/14 10:31:26;;;;;;;2.78;1.67;;;;;;;25.25;46.59;100946.16;5110092;28;20486;-27
2022/07/14 10:33:52;;;;;;;3.90;1.85;;;;;;;25.33;46.19;100942.91;5109530;28;20043;-27
2022/07/14 10:36:31;;;;;;;3.50;2.20;;;;;;;25.42;46.39;100936.91;5126556;27;20466;-27
2022/07/14 10:39:08;;;;;;;2.90;1.63;;;;;;;25.57;46.08;100934.97;5134338;27;20272;-27
2022/07/14 10:41:58;;;;;;;4.53;2.03;;;;;;;25.71;46.32;100930.50;5135660;27;20470;-28
2022/07/14 10:44:31;;;;;;;3.92;2.08;;;;;;;25.88;46.20;100932.03;5134771;27;20515;-27
2022/07/14 10:47:06;;;;;;;5.45;2.28;;;;;;;26.06;46.07;100923.56;5134389;27;20026;-28
2022/07/14 10:50:01;;;;;;;4.35;1.88;;;;;;;26.26;45.88;100924.84;5135591;27;20027;-27
2022/07/14 10:52:28;;;;;;;4.30;2.17;;;;;;;26.39;45.41;100922.16;5123979;27;20034;-27
2022/07/14 10:55:13;;;;;;;3.58;2.10;;;;;;;26.50;45.27;100916.84;5114512;28;20035;-27
2022/07/14 10:57:38;;;;;;;3.85;1.98;;;;;;;26.64;45.07;100894.19;5125836;27;20118;-27
2022/07/14 11:00:05;;;;;;;4.40;2.50;;;;;;;26.76;44.98;100908.66;5133506;27;20504;-28
2022/07/14 11:02:32;;;;;;;4.38;2.78;;;;;;;26.88;44.64;100909.56;5135111;27;20035;-27
2022/07/14 11:05:00;;;;;;;2.97;2.47;;;;;;;26.97;44.61;100908.03;5134691;27;20023;-28
2022/07/14 11:07:40;;;;;;;3.85;2.60;;;;;;;27.02;44.04;100905.00;5135016;27;20065;-27
2022/07/14 11:10:26;;;;;;;7.18;2.67;;;;;;;27.12;44.08;100903.31;5132261;27;20486;-27
2022/07/14 11:13:06;;;;;;;3.47;2.50;;;;;;;27.26;43.55;100904.09;5092371;27;20035;-27
2022/07/14 11:15:42;;;;;;;5.05;2.58;;;;;;;27.26;43.48;100907.66;5133690;27;20034;-27
2022/07/14 11:18:35;;;;;;;3.72;2.42;;;;;;;27.24;43.26;100898.78;5135229;27;20045;-28
2022/07/14 11:21:19;;;;;;;4.07;2.60;;;;;;;27.25;43.35;100891.53;5121421;27;20046;-27
2022/07/14 11:23:50;;;;;;;3.58;2.30;;;;;;;27.23;43.38;100888.94;5120659;27;20019;-27
2022/07/14 11:26:40;;;;;;;5.07;2.80;;;;;;;27.26;43.36;100894.13;5127037;27;20077;-27
2022/07/14 11:29:07;;;;;;;3.83;2.67;;;;;;;27.27;43.42;100887.72;5114186;28;20106;-27
2022/07/14 11:31:46;;;;;;;3.17;2.63;;;;;;;27.31;43.50;100884.78;5113824;28;20570;-28